createdAt,value
2022-12-20T00:01:58.721Z,27.00
2022-12-20T00:04:27.187Z,27.85
2022-12-20T00:06:55.779Z,25.08
2022-12-20T00:09:25.523Z,25.08
2022-12-20T00:11:53.862Z,28.10
2022-12-20T00:14:24.866Z,23.40
2022-12-20T00:16:53.258Z,23.40
2022-12-20T00:19:23.594Z,26.40
2022-12-20T00:21:52.242Z,24.52
2022-12-20T00:24:26.308Z,22.80
2022-12-20T00:26:55.229Z,22.52
2022-12-20T00:29:25.503Z,22.27
2022-12-20T00:31:54.461Z,26.90
2022-12-20T00:34:23.521Z,24.70
2022-12-20T00:36:53.580Z,25.45
2022-12-20T00:39:24.314Z,27.58
2022-12-20T00:41:55.648Z,23.20
2022-12-20T00:44:26.163Z,25.33
2022-12-20T00:46:55.325Z,27.42
2022-12-20T00:49:25.820Z,24.30
2022-12-20T00:51:57.500Z,24.83
2022-12-20T00:54:25.957Z,27.98
2022-12-20T00:56:56.735Z,23.20
2022-12-20T00:59:28.065Z,24.85
2022-12-20T01:01:57.668Z,25.08
2022-12-20T01:04:27.620Z,24.83
2022-12-20T01:06:56.449Z,24.42
2022-12-20T01:09:25.701Z,25.75
2022-12-20T01:11:54.182Z,24.38
2022-12-20T01:14:26.593Z,24.75
2022-12-20T01:16:56.943Z,25.77
2022-12-20T01:19:26.691Z,26.13
2022-12-20T01:21:57.954Z,24.95
2022-12-20T01:24:26.893Z,25.17
2022-12-20T01:26:57.314Z,27.80
2022-12-20T01:29:27.049Z,23.35
2022-12-20T01:31:55.951Z,24.90
2022-12-20T01:34:29.596Z,25.27
2022-12-20T01:37:35.868Z,24.48
2022-12-20T01:46:37.080Z,24.80
2022-12-20T01:49:12.083Z,23.42
2022-12-20T01:51:45.547Z,25.10
2022-12-20T01:54:18.539Z,26.20
2022-12-20T01:56:49.429Z,26.40
2022-12-20T01:59:19.419Z,24.75
2022-12-20T02:01:49.361Z,26.48
2022-12-20T02:04:19.248Z,25.50
2022-12-20T02:06:47.724Z,24.88
2022-12-20T02:09:17.229Z,26.58
2022-12-20T02:11:57.793Z,26.65
2022-12-20T02:14:49.366Z,27.13
2022-12-20T02:17:23.378Z,25.45
2022-12-20T02:20:12.496Z,29.05
2022-12-20T02:22:52.762Z,27.67
2022-12-20T02:25:35.668Z,25.52
2022-12-20T02:28:11.326Z,28.30
2022-12-20T02:30:43.381Z,29.33
2022-12-20T02:33:13.622Z,25.95
2022-12-20T02:35:43.501Z,26.45
2022-12-20T02:38:29.821Z,25.75
2022-12-20T02:41:02.192Z,29.63
2022-12-20T02:43:51.151Z,26.10
2022-12-20T02:46:22.553Z,25.65
2022-12-20T02:48:53.580Z,30.20
2022-12-20T02:51:23.604Z,26.17
2022-12-20T02:53:52.368Z,24.63
2022-12-20T02:56:27.927Z,24.73
2022-12-20T02:59:00.136Z,25.85
2022-12-20T03:01:33.083Z,28.58
2022-12-20T03:04:02.406Z,26.13
2022-12-20T03:06:32.076Z,27.00
2022-12-20T03:09:00.859Z,26.50
2022-12-20T03:11:31.744Z,24.85
2022-12-20T03:14:00.498Z,28.83
2022-12-20T03:16:30.427Z,26.90
2022-12-20T03:18:58.970Z,26.08
2022-12-20T03:21:27.331Z,23.48
2022-12-20T03:23:55.749Z,24.88
2022-12-20T03:26:24.271Z,22.67
2022-12-20T03:28:57.487Z,24.58
2022-12-20T03:31:28.744Z,26.80
2022-12-20T03:33:59.669Z,29.83
2022-12-20T03:36:28.428Z,27.00
2022-12-20T03:39:00.416Z,26.02
2022-12-20T03:41:32.192Z,26.77
2022-12-20T03:44:01.486Z,26.75
2022-12-20T03:46:29.934Z,25.80
2022-12-20T03:49:00.326Z,22.70
2022-12-20T03:51:30.707Z,27.70
2022-12-20T03:53:59.300Z,24.10
2022-12-20T03:56:43.157Z,26.25
2022-12-20T03:59:11.930Z,25.95
2022-12-20T04:01:42.090Z,27.17
2022-12-20T04:04:13.718Z,25.10
2022-12-20T04:06:42.223Z,22.90
2022-12-20T04:09:10.779Z,29.48
2022-12-20T04:11:45.144Z,26.45
2022-12-20T04:14:16.471Z,25.90
2022-12-20T04:16:46.276Z,26.25
2022-12-20T04:19:16.606Z,26.65
2022-12-20T04:21:47.987Z,24.73
2022-12-20T04:24:18.277Z,26.52
2022-12-20T04:27:15.883Z,26.13
2022-12-20T04:29:45.794Z,27.75
2022-12-20T04:32:17.316Z,28.65
2022-12-20T04:34:47.298Z,26.02
2022-12-20T04:37:17.011Z,24.83
2022-12-20T04:39:49.904Z,26.58
2022-12-20T04:42:24.910Z,28.30
2022-12-20T04:44:54.930Z,26.65
2022-12-20T04:47:29.681Z,27.08
2022-12-20T04:50:01.106Z,27.38
2022-12-20T04:52:48.441Z,24.63
2022-12-20T04:55:18.204Z,26.70
2022-12-20T04:57:46.707Z,27.15
2022-12-20T05:00:15.929Z,25.98
2022-12-20T05:02:47.770Z,29.10
2022-12-20T05:05:20.900Z,23.30
2022-12-20T05:07:53.283Z,28.52
2022-12-20T05:10:21.938Z,28.90
2022-12-20T05:12:51.674Z,26.60
2022-12-20T05:15:31.272Z,27.25
2022-12-20T05:18:00.989Z,29.05
2022-12-20T05:20:39.770Z,24.83
2022-12-20T05:23:25.842Z,27.00
2022-12-20T05:26:19.345Z,25.85
2022-12-20T05:28:50.002Z,27.17
2022-12-20T05:31:18.627Z,28.15
2022-12-20T05:33:47.168Z,24.50
2022-12-20T05:36:18.558Z,26.15
2022-12-20T05:38:47.095Z,27.00
2022-12-20T05:41:18.659Z,29.42
2022-12-20T05:43:50.264Z,27.35
2022-12-20T05:46:19.535Z,26.20
2022-12-20T05:49:01.719Z,28.20
2022-12-20T05:51:31.662Z,27.02
2022-12-20T05:54:18.921Z,27.15
2022-12-20T05:56:55.840Z,28.88
2022-12-20T05:59:32.670Z,26.98
2022-12-20T06:02:01.380Z,26.90
2022-12-20T06:04:29.796Z,27.42
2022-12-20T06:07:01.039Z,27.42
2022-12-20T06:09:31.366Z,28.85
2022-12-20T06:12:06.403Z,26.45
2022-12-20T06:14:36.066Z,28.92
2022-12-20T06:17:04.588Z,27.48
2022-12-20T06:19:33.634Z,25.02
2022-12-20T06:22:06.075Z,24.90
2022-12-20T06:24:47.917Z,26.42
2022-12-20T06:27:18.798Z,26.00
2022-12-20T06:29:54.668Z,23.65
2022-12-20T06:32:27.548Z,24.27
2022-12-20T06:34:56.721Z,24.02
2022-12-20T06:37:27.470Z,27.70
2022-12-20T06:39:56.042Z,25.23
2022-12-20T06:42:24.715Z,25.83
2022-12-20T06:44:53.056Z,27.80
2022-12-20T06:47:21.773Z,26.90
2022-12-20T06:49:52.112Z,27.63
2022-12-20T06:52:24.061Z,28.00
2022-12-20T06:54:57.986Z,25.08
2022-12-20T06:57:26.592Z,26.02
2022-12-20T06:59:56.699Z,26.92
2022-12-20T07:02:27.617Z,27.05
2022-12-20T07:04:56.546Z,27.02
2022-12-20T07:07:25.321Z,29.52
2022-12-20T07:09:53.692Z,27.23
2022-12-20T07:12:24.196Z,25.98
2022-12-20T07:14:53.259Z,28.35
2022-12-20T07:17:21.594Z,24.70
2022-12-20T07:19:51.199Z,29.90
2022-12-20T07:22:19.891Z,29.85
2022-12-20T07:24:50.227Z,28.42
2022-12-20T07:27:18.734Z,30.15
2022-12-20T07:29:48.476Z,25.70
2022-12-20T07:32:17.052Z,25.13
2022-12-20T07:34:45.394Z,24.80
2022-12-20T07:37:14.130Z,26.45
2022-12-20T07:39:42.980Z,28.55
2022-12-20T07:42:12.723Z,25.83
2022-12-20T07:44:44.452Z,29.98
2022-12-20T07:47:14.409Z,27.30
2022-12-20T07:49:42.895Z,27.45
2022-12-20T07:52:12.897Z,27.45
2022-12-20T07:54:46.040Z,27.00
2022-12-20T07:57:19.072Z,27.02
2022-12-20T07:59:53.196Z,25.17
2022-12-20T08:02:25.722Z,27.30
2022-12-20T08:04:54.919Z,26.77
2022-12-20T08:07:25.014Z,23.77
2022-12-20T08:09:53.723Z,25.88
2022-12-20T08:12:23.193Z,24.15
2022-12-20T08:14:56.188Z,26.02
2022-12-20T08:17:26.311Z,24.38
2022-12-20T08:19:57.441Z,25.80
2022-12-20T08:22:26.823Z,25.95
2022-12-20T08:24:55.596Z,26.00
2022-12-20T08:27:24.340Z,24.58
2022-12-20T08:29:53.390Z,24.67
2022-12-20T08:32:21.715Z,24.08
2022-12-20T08:34:51.511Z,25.42
2022-12-20T08:37:20.284Z,25.65
2022-12-20T08:39:48.627Z,25.73
2022-12-20T08:42:19.479Z,23.88
2022-12-20T08:44:51.032Z,26.00
2022-12-20T08:47:19.499Z,27.35
2022-12-20T08:49:48.307Z,22.05
2022-12-20T08:52:18.469Z,24.88
2022-12-20T08:54:47.329Z,24.73
2022-12-20T08:57:16.168Z,22.00
2022-12-20T08:59:44.629Z,26.50
2022-12-20T09:02:13.316Z,24.75
2022-12-20T09:04:42.312Z,22.98
2022-12-20T09:07:10.702Z,26.75
2022-12-20T09:09:40.778Z,23.73
2022-12-20T09:12:09.341Z,31.98
2022-12-20T09:14:38.363Z,27.90
2022-12-20T09:17:07.204Z,27.40
2022-12-20T09:19:35.919Z,27.58
2022-12-20T09:22:04.480Z,30.65
2022-12-20T09:24:32.962Z,24.48
2022-12-20T09:27:02.930Z,26.65
2022-12-20T09:29:35.843Z,22.40
2022-12-20T09:32:04.520Z,28.48
2022-12-20T09:34:32.967Z,27.05
2022-12-20T09:37:01.719Z,27.00
2022-12-20T09:39:30.767Z,27.08
2022-12-20T09:42:02.835Z,26.83
2022-12-20T09:44:34.786Z,28.55
2022-12-20T09:47:10.527Z,27.27
2022-12-20T09:49:42.520Z,28.10
2022-12-20T09:52:32.889Z,24.85
2022-12-20T09:55:08.859Z,25.90
2022-12-20T09:57:48.960Z,26.58
2022-12-20T10:00:19.392Z,26.70
2022-12-20T10:03:06.107Z,26.00
2022-12-20T10:05:42.156Z,27.20
2022-12-20T10:08:17.878Z,28.67
2022-12-20T10:10:55.851Z,27.05
2022-12-20T10:13:37.161Z,27.45
2022-12-20T10:16:11.694Z,27.52
2022-12-20T10:18:49.736Z,28.63
2022-12-20T10:21:23.850Z,28.77
2022-12-20T10:23:59.722Z,26.25
2022-12-20T10:26:29.849Z,25.95
2022-12-20T10:29:08.728Z,26.75
2022-12-20T10:31:47.041Z,28.08
2022-12-20T10:34:17.267Z,25.70
2022-12-20T10:37:16.101Z,26.42
2022-12-20T10:39:46.034Z,23.42
2022-12-20T10:42:27.061Z,26.42
2022-12-20T10:44:57.642Z,29.20
2022-12-20T10:47:35.683Z,27.88
2022-12-20T10:50:15.912Z,28.15
2022-12-20T10:52:45.999Z,27.60
2022-12-20T10:55:34.551Z,26.17
2022-12-20T10:58:06.160Z,28.57
2022-12-20T11:00:36.293Z,26.60
2022-12-20T11:03:11.998Z,27.00
2022-12-20T11:05:41.162Z,25.90
2022-12-20T11:11:19.594Z,23.83
2022-12-20T11:13:48.370Z,27.30
2022-12-20T11:16:32.384Z,25.35
2022-12-20T11:19:16.889Z,28.77
2022-12-20T11:21:49.008Z,27.30
2022-12-20T11:24:26.627Z,25.17
2022-12-20T11:27:11.928Z,25.80
2022-12-20T11:30:11.411Z,26.35
2022-12-20T11:33:04.611Z,28.17
2022-12-20T11:35:42.306Z,28.65
2022-12-20T11:38:16.049Z,29.70
2022-12-20T11:40:49.785Z,25.23
2022-12-20T11:43:28.944Z,27.08
2022-12-20T11:46:09.974Z,30.02
2022-12-20T11:48:59.566Z,24.55
2022-12-20T11:51:32.983Z,25.23
2022-12-20T11:54:04.973Z,26.95
2022-12-20T11:56:43.520Z,29.45
2022-12-20T11:59:19.275Z,26.45
2022-12-20T12:01:51.389Z,27.92
2022-12-20T12:04:24.070Z,25.85
2022-12-20T12:06:58.576Z,26.08
2022-12-20T12:09:32.317Z,24.60
2022-12-20T12:12:07.867Z,23.67
2022-12-20T12:14:46.211Z,23.83
2022-12-20T12:17:21.921Z,27.42
2022-12-20T12:19:52.452Z,25.40
2022-12-20T12:22:26.040Z,27.33
2022-12-20T12:24:57.880Z,25.35
2022-12-20T12:27:28.494Z,26.02
2022-12-20T12:29:57.907Z,25.92
2022-12-20T12:32:31.551Z,26.93
2022-12-20T12:35:13.498Z,26.80
2022-12-20T12:37:55.039Z,24.60
2022-12-20T12:40:56.448Z,23.83
2022-12-20T12:43:47.345Z,23.75
2022-12-20T12:46:19.298Z,21.40
2022-12-20T12:48:53.065Z,21.88
2022-12-20T12:51:37.715Z,24.00
2022-12-20T12:54:19.173Z,22.63
2022-12-20T12:56:49.121Z,25.30
2022-12-20T12:59:41.399Z,25.93
2022-12-20T13:02:38.605Z,22.95
2022-12-20T13:05:36.771Z,23.30
2022-12-20T13:08:17.454Z,25.35
2022-12-20T13:11:13.253Z,19.27
2022-12-20T13:13:41.763Z,20.50
2022-12-20T13:16:15.303Z,22.90
2022-12-20T13:19:13.474Z,24.17
2022-12-20T13:21:44.952Z,23.37
2022-12-20T13:24:55.334Z,24.10
2022-12-20T13:27:29.494Z,21.13
2022-12-20T13:30:22.319Z,21.48
2022-12-20T13:33:25.983Z,23.57
2022-12-20T13:36:03.385Z,24.40
2022-12-20T13:38:56.683Z,23.30
2022-12-20T13:41:41.769Z,21.73
2022-12-20T13:44:38.170Z,20.92
2022-12-20T13:47:18.672Z,22.33
2022-12-20T13:49:47.580Z,22.27
2022-12-20T13:52:39.697Z,20.98
2022-12-20T13:55:18.739Z,19.17
2022-12-20T13:57:49.067Z,21.30
2022-12-20T14:00:19.927Z,23.02
2022-12-20T14:02:49.273Z,23.70
2022-12-20T14:05:21.819Z,23.88
2022-12-20T14:07:57.534Z,21.50
2022-12-20T14:10:28.933Z,21.92
2022-12-20T14:12:59.060Z,20.73
2022-12-20T14:15:31.350Z,21.70
2022-12-20T14:18:06.860Z,19.98
2022-12-20T14:20:37.347Z,23.37
2022-12-20T14:23:07.157Z,22.98
2022-12-20T14:25:45.349Z,21.73
2022-12-20T14:28:27.404Z,20.40
2022-12-20T14:30:57.229Z,20.63
2022-12-20T14:33:33.229Z,20.45
2022-12-20T14:36:10.313Z,21.40
2022-12-20T14:38:40.425Z,22.17
2022-12-20T14:41:34.212Z,21.27
2022-12-20T14:44:13.806Z,21.38
2022-12-20T14:46:47.061Z,22.67
2022-12-20T14:49:24.466Z,19.05
2022-12-20T14:51:53.672Z,20.95
2022-12-20T14:55:05.861Z,21.42
2022-12-20T14:57:14.097Z,22.10
2022-12-20T14:59:59.686Z,20.90
2022-12-20T15:02:41.591Z,22.00
2022-12-20T15:05:48.532Z,23.48
2022-12-20T15:08:19.847Z,22.23
2022-12-20T15:10:54.803Z,19.92
2022-12-20T15:13:26.094Z,23.92
2022-12-20T15:15:57.056Z,22.40
2022-12-20T15:18:25.805Z,20.05
2022-12-20T15:21:05.129Z,22.95
2022-12-20T15:23:34.546Z,24.25
2022-12-20T15:26:03.224Z,22.00
2022-12-20T15:28:32.463Z,22.85
2022-12-20T15:31:02.398Z,22.15
2022-12-20T15:33:34.590Z,21.50
2022-12-20T15:36:03.221Z,21.10
2022-12-20T15:39:03.475Z,25.42
2022-12-20T15:41:23.511Z,20.60
2022-12-20T15:43:53.969Z,23.33
2022-12-20T15:46:24.018Z,22.08
2022-12-20T15:48:53.566Z,21.65
2022-12-20T15:51:27.463Z,21.65
2022-12-20T15:53:55.891Z,21.63
2022-12-20T15:56:25.488Z,20.52
2022-12-20T15:58:54.101Z,19.45
2022-12-20T16:01:25.631Z,20.10
2022-12-20T16:03:54.318Z,22.70
2022-12-20T16:06:23.306Z,21.38
2022-12-20T16:08:51.782Z,19.05
2022-12-20T16:11:23.897Z,21.42
2022-12-20T16:13:52.515Z,22.58
2022-12-20T16:16:24.197Z,19.23
2022-12-20T16:18:53.802Z,19.35
2022-12-20T16:21:23.904Z,20.20
2022-12-20T16:23:52.473Z,18.42
2022-12-20T16:26:23.000Z,19.02
2022-12-20T16:28:54.834Z,17.52
2022-12-20T16:31:27.017Z,19.58
2022-12-20T16:33:56.370Z,20.67
2022-12-20T16:36:25.521Z,18.30
2022-12-20T16:38:54.268Z,22.38
2022-12-20T16:41:25.216Z,19.58
2022-12-20T16:43:53.726Z,21.33
2022-12-20T16:46:26.390Z,21.38
2022-12-20T16:48:55.336Z,21.27
2022-12-20T16:51:26.015Z,20.05
2022-12-20T16:54:18.021Z,22.35
2022-12-20T16:56:44.076Z,20.77
2022-12-20T16:59:22.101Z,20.70
2022-12-20T17:01:54.529Z,23.10
2022-12-20T17:04:26.047Z,22.10
2022-12-20T17:06:56.781Z,22.60
2022-12-20T17:09:25.311Z,19.48
2022-12-20T17:11:53.749Z,20.98
2022-12-20T17:14:22.251Z,20.35
2022-12-20T17:16:50.762Z,19.77
2022-12-20T17:19:20.743Z,19.30
2022-12-20T17:24:36.579Z,19.02
2022-12-20T17:27:06.428Z,19.15
2022-12-20T17:29:35.124Z,16.98
2022-12-20T17:32:05.275Z,19.10
2022-12-20T17:34:36.695Z,20.92
2022-12-20T17:37:05.286Z,18.40
2022-12-20T17:39:34.902Z,18.00
2022-12-20T17:42:03.371Z,19.30
2022-12-20T17:44:32.873Z,20.08
2022-12-20T17:47:01.605Z,21.08
2022-12-20T17:49:31.475Z,22.48
2022-12-20T17:52:01.727Z,21.42
2022-12-20T17:54:36.839Z,19.98
2022-12-20T17:57:14.401Z,21.38
2022-12-20T17:59:43.522Z,20.05
2022-12-20T18:02:22.357Z,18.02
2022-12-20T18:04:51.110Z,19.40
2022-12-20T18:07:21.236Z,18.05
2022-12-20T18:09:50.151Z,19.00
2022-12-20T18:12:18.931Z,20.38
2022-12-20T18:14:49.455Z,17.93
2022-12-20T18:17:17.872Z,19.73
2022-12-20T18:19:46.641Z,14.80
2022-12-20T18:22:15.047Z,15.87
2022-12-20T18:24:44.756Z,17.35
2022-12-20T18:27:13.951Z,16.88
2022-12-20T18:29:42.682Z,16.52
2022-12-20T18:32:11.658Z,14.70
2022-12-20T18:34:40.052Z,11.98
2022-12-20T18:37:08.706Z,14.10
2022-12-20T18:39:38.391Z,14.52
2022-12-20T18:42:08.422Z,13.82
2022-12-20T18:44:36.937Z,16.23
2022-12-20T18:47:06.136Z,14.82
2022-12-20T18:49:36.201Z,14.13
2022-12-20T18:52:05.421Z,11.95
2022-12-20T18:54:33.963Z,13.05
2022-12-20T18:57:06.319Z,13.38
2022-12-20T18:59:36.540Z,12.65
2022-12-20T19:02:06.120Z,13.27
2022-12-20T19:04:36.144Z,10.25
2022-12-20T19:07:06.982Z,11.70
2022-12-20T19:09:36.925Z,15.05
2022-12-20T19:12:08.026Z,13.80
2022-12-20T19:14:38.653Z,10.77
2022-12-20T19:17:07.610Z,13.95
2022-12-20T19:19:39.670Z,13.55
2022-12-20T19:22:12.113Z,13.82
2022-12-20T19:24:42.346Z,13.07
2022-12-20T19:27:11.312Z,13.25
2022-12-20T19:29:41.792Z,11.90
2022-12-20T19:32:12.824Z,14.02
2022-12-20T19:34:41.981Z,11.18
2022-12-20T19:37:11.359Z,13.00
2022-12-20T19:39:43.514Z,13.32
2022-12-20T19:42:29.889Z,12.88
2022-12-20T19:45:01.625Z,11.40
2022-12-20T19:47:33.225Z,11.45
2022-12-20T19:50:02.105Z,14.32
2022-12-20T19:52:30.890Z,12.88
2022-12-20T19:55:00.541Z,12.90
2022-12-20T19:57:29.159Z,13.90
2022-12-20T19:59:59.955Z,6.38
2022-12-20T20:02:28.912Z,15.45
2022-12-20T20:04:58.437Z,12.60
2022-12-20T20:07:28.938Z,14.27
2022-12-20T20:09:58.029Z,14.88
2022-12-20T20:12:26.906Z,15.65
2022-12-20T20:14:56.626Z,13.60
2022-12-20T20:17:27.577Z,15.32
2022-12-20T20:19:56.147Z,14.90
2022-12-20T20:22:25.605Z,14.35
2022-12-20T20:24:54.641Z,11.70
2022-12-20T20:27:25.009Z,13.50
2022-12-20T20:29:53.461Z,13.80
2022-12-20T20:32:23.031Z,14.52
2022-12-20T20:34:53.040Z,16.70
2022-12-20T20:37:21.459Z,14.38
2022-12-20T20:39:50.062Z,16.58
2022-12-20T20:42:23.223Z,12.80
2022-12-20T20:44:52.549Z,11.82
2022-12-20T20:47:21.569Z,14.45
2022-12-20T20:49:52.819Z,15.13
2022-12-20T20:52:22.780Z,14.75
2022-12-20T20:54:51.383Z,14.38
2022-12-20T20:57:20.202Z,12.95
2022-12-20T20:59:48.745Z,15.68
2022-12-20T21:02:21.099Z,17.45
2022-12-20T21:05:24.689Z,14.23
2022-12-20T21:07:39.939Z,16.45
2022-12-20T21:10:10.112Z,16.15
2022-12-20T21:12:38.847Z,16.50
2022-12-20T21:15:24.794Z,15.43
2022-12-20T21:17:56.889Z,16.30
2022-12-20T21:20:26.547Z,15.20
2022-12-20T21:22:57.440Z,17.33
2022-12-20T21:25:26.299Z,18.05
2022-12-20T21:27:54.603Z,16.90
2022-12-20T21:30:23.110Z,16.52
2022-12-20T21:32:51.527Z,17.90
2022-12-20T21:35:19.813Z,18.63
2022-12-20T21:37:48.125Z,16.55
2022-12-20T21:40:18.175Z,15.77
2022-12-20T21:42:46.724Z,14.98
2022-12-20T21:45:15.953Z,16.17
2022-12-20T21:47:44.331Z,15.43
2022-12-20T21:50:14.318Z,16.15
2022-12-20T21:52:42.652Z,17.00
2022-12-20T21:55:11.209Z,17.88
2022-12-20T21:57:41.285Z,15.25
2022-12-20T22:00:11.380Z,17.05
2022-12-20T22:02:39.734Z,14.35
2022-12-20T22:05:08.973Z,17.65
2022-12-20T22:07:37.283Z,17.27
2022-12-20T22:10:06.459Z,15.52
2022-12-20T22:12:47.059Z,15.75
2022-12-20T22:15:17.159Z,15.95
2022-12-20T22:17:45.532Z,16.35
2022-12-20T22:20:14.577Z,16.35
2022-12-20T22:22:43.051Z,16.77
2022-12-20T22:25:11.436Z,16.15
2022-12-20T22:27:39.701Z,16.80
2022-12-20T22:30:10.099Z,16.48
2022-12-20T22:32:39.881Z,18.92
2022-12-20T22:35:09.112Z,14.38
2022-12-20T22:37:37.483Z,14.63
2022-12-20T22:40:07.594Z,14.95
2022-12-20T22:42:36.318Z,15.85
2022-12-20T22:45:05.318Z,15.52
2022-12-20T22:50:20.935Z,16.90
2022-12-20T22:52:49.371Z,17.92
2022-12-20T22:55:17.866Z,18.23
2022-12-20T22:57:46.325Z,17.75
2022-12-20T23:00:15.972Z,18.30
2022-12-20T23:02:44.630Z,15.32
2022-12-20T23:05:13.480Z,18.23
2022-12-20T23:07:43.297Z,18.92
2022-12-20T23:10:33.859Z,18.00
2022-12-20T23:13:19.323Z,17.98
2022-12-20T23:15:48.591Z,17.35
2022-12-20T23:18:16.865Z,18.73
2022-12-20T23:21:07.644Z,17.05
2022-12-20T23:23:37.460Z,15.82
2022-12-20T23:26:12.847Z,19.70
2022-12-20T23:28:41.094Z,17.48
2022-12-20T23:31:10.804Z,16.77
2022-12-20T23:33:39.193Z,18.70
2022-12-20T23:36:08.624Z,16.88
2022-12-20T23:38:38.711Z,15.93
2022-12-20T23:41:10.908Z,16.30
2022-12-20T23:43:39.984Z,18.85
2022-12-20T23:46:10.968Z,17.38
2022-12-20T23:48:39.688Z,17.70
2022-12-20T23:51:10.593Z,17.35
2022-12-20T23:53:40.694Z,19.48
2022-12-20T23:56:11.830Z,17.23
2022-12-20T23:58:40.540Z,18.55
